createdAt,value
2023-05-18T00:00:02.830Z,101927.34
2023-05-18T00:02:29.338Z,101927.69
2023-05-18T00:04:55.950Z,101930.78
2023-05-18T00:07:22.568Z,101925.81
2023-05-18T00:09:49.060Z,101919.81
2023-05-18T00:12:15.640Z,101928.41
2023-05-18T00:14:42.058Z,101922.41
2023-05-18T00:17:08.491Z,101931.66
2023-05-18T00:19:35.020Z,101938.34
2023-05-18T00:22:02.277Z,101925.97
2023-05-18T00:24:28.861Z,101924.59
2023-05-18T00:26:55.375Z,101934.22
2023-05-18T00:29:21.888Z,101945.88
2023-05-18T00:31:48.466Z,101936.13
2023-05-18T00:34:16.715Z,101939.38
2023-05-18T00:36:43.361Z,101940.03
2023-05-18T00:39:10.307Z,101934.53
2023-05-18T00:41:36.866Z,101942.97
2023-05-18T00:44:04.745Z,101939.50
2023-05-18T00:46:31.937Z,101939.84
2023-05-18T00:48:59.115Z,101939.34
2023-05-18T00:51:26.296Z,101941.56
2023-05-18T00:53:53.923Z,101937.44
2023-05-18T00:56:23.678Z,101943.97
2023-05-18T00:58:52.848Z,101934.53
2023-05-18T01:01:20.212Z,101946.00
2023-05-18T01:03:46.827Z,101949.94
2023-05-18T01:06:14.778Z,101941.34
2023-05-18T01:08:42.877Z,101945.97
2023-05-18T01:11:24.854Z,101943.41
2023-05-18T01:14:03.279Z,101945.66
2023-05-18T01:16:34.578Z,101952.31
2023-05-18T01:19:14.069Z,101938.78
2023-05-18T01:21:55.576Z,101948.88
2023-05-18T01:24:48.507Z,101949.03
2023-05-18T01:27:17.778Z,101950.09
2023-05-18T01:29:48.602Z,101947.50
2023-05-18T01:32:20.227Z,101949.56
2023-05-18T01:34:47.482Z,101954.00
2023-05-18T01:37:14.127Z,101959.78
2023-05-18T01:39:42.059Z,101949.88
2023-05-18T01:42:14.557Z,101947.47
2023-05-18T01:44:50.899Z,101954.28
2023-05-18T01:47:18.289Z,101945.03
2023-05-18T01:50:05.050Z,101950.13
2023-05-18T01:52:37.687Z,101953.22
2023-05-18T01:55:06.437Z,101949.75
2023-05-18T01:57:35.058Z,101951.81
2023-05-18T02:00:02.521Z,101954.56
2023-05-18T02:02:29.129Z,101950.28
2023-05-18T02:04:56.179Z,101945.97
2023-05-18T02:07:22.718Z,101949.03
2023-05-18T02:09:49.487Z,101942.69
2023-05-18T02:12:15.961Z,101943.03
2023-05-18T02:14:42.509Z,101949.69
2023-05-18T02:17:09.057Z,101950.72
2023-05-18T02:19:38.690Z,101957.19
2023-05-18T02:22:07.074Z,101951.19
2023-05-18T02:24:34.421Z,101952.22
2023-05-18T02:27:01.472Z,101959.88
2023-05-18T02:29:27.965Z,101958.19
2023-05-18T02:31:54.473Z,101957.16
2023-05-18T02:34:22.817Z,101956.47
2023-05-18T02:36:49.441Z,101955.75
2023-05-18T02:39:16.191Z,101956.28
2023-05-18T02:41:42.620Z,101953.16
2023-05-18T02:44:09.125Z,101951.56
2023-05-18T02:46:35.651Z,101960.78
2023-05-18T02:49:02.137Z,101952.22
2023-05-18T02:51:29.894Z,101958.84
2023-05-18T02:53:57.463Z,101959.16
2023-05-18T02:56:24.753Z,101955.75
2023-05-18T02:58:58.417Z,101954.34
2023-05-18T03:01:27.102Z,101961.28
2023-05-18T03:03:54.391Z,101969.16
2023-05-18T03:06:26.460Z,101966.88
2023-05-18T03:08:56.161Z,101968.91
2023-05-18T03:11:23.324Z,101968.91
2023-05-18T03:13:50.034Z,101972.66
2023-05-18T03:16:16.542Z,101966.66
2023-05-18T03:18:43.140Z,101970.72
2023-05-18T03:21:10.025Z,101962.13
2023-05-18T03:23:36.498Z,101968.78
2023-05-18T03:26:03.802Z,101964.78
2023-05-18T03:28:30.757Z,101974.16
2023-05-18T03:30:57.859Z,101962.69
2023-05-18T03:33:24.485Z,101970.34
2023-05-18T03:35:52.191Z,101968.06
2023-05-18T03:38:18.783Z,101973.97
2023-05-18T03:40:45.388Z,101972.41
2023-05-18T03:43:11.821Z,101979.06
2023-05-18T03:45:38.262Z,101977.47
2023-05-18T03:48:04.934Z,101975.06
2023-05-18T03:50:31.790Z,101976.06
2023-05-18T03:52:58.276Z,101976.25
2023-05-18T03:55:24.770Z,101979.13
2023-05-18T03:57:51.282Z,101970.06
2023-05-18T04:00:18.125Z,101974.84
2023-05-18T04:02:44.762Z,101971.22
2023-05-18T04:05:11.270Z,101973.97
2023-05-18T04:07:43.886Z,101977.69
2023-05-18T04:10:12.089Z,101975.16
2023-05-18T04:12:38.853Z,101976.00
2023-05-18T04:15:05.863Z,101970.81
2023-05-18T04:17:33.443Z,101976.16
2023-05-18T04:19:59.950Z,101979.75
2023-05-18T04:22:29.784Z,101982.34
2023-05-18T04:24:57.379Z,101986.22
2023-05-18T04:27:23.905Z,101986.94
2023-05-18T04:29:50.405Z,101990.81
2023-05-18T04:32:18.449Z,101982.47
2023-05-18T04:34:49.423Z,101986.06
2023-05-18T04:37:17.933Z,101986.63
2023-05-18T04:39:44.402Z,101986.31
2023-05-18T04:42:11.003Z,101987.00
2023-05-18T04:44:39.111Z,101995.19
2023-05-18T04:47:08.380Z,101986.00
2023-05-18T04:49:35.017Z,101990.44
2023-05-18T04:52:01.533Z,101993.19
2023-05-18T04:54:32.512Z,101998.50
2023-05-18T04:56:59.354Z,101997.16
2023-05-18T04:59:26.530Z,101998.00
2023-05-18T05:01:53.663Z,102000.19
2023-05-18T05:04:21.626Z,101993.38
2023-05-18T05:06:48.174Z,101995.63
2023-05-18T05:09:14.855Z,101998.91
2023-05-18T05:11:41.995Z,102000.50
2023-05-18T05:14:08.501Z,101997.25
2023-05-18T05:16:35.723Z,102000.41
2023-05-18T05:19:02.598Z,101998.06
2023-05-18T05:21:29.112Z,101998.44
2023-05-18T05:23:55.637Z,102003.09
2023-05-18T05:26:22.254Z,102001.47
2023-05-18T05:28:48.689Z,101998.66
2023-05-18T05:31:15.309Z,101995.97
2023-05-18T05:33:42.081Z,101996.72
2023-05-18T05:36:08.838Z,102000.06
2023-05-18T05:38:35.272Z,102001.66
2023-05-18T05:41:01.941Z,102000.38
2023-05-18T05:43:28.340Z,102002.97
2023-05-18T05:45:54.901Z,101999.81
2023-05-18T05:48:21.492Z,101998.78
2023-05-18T05:50:48.018Z,101993.16
2023-05-18T05:53:17.818Z,102000.56
2023-05-18T05:55:44.376Z,101990.69
2023-05-18T05:58:10.944Z,101990.00
2023-05-18T06:00:37.401Z,101992.91
2023-05-18T06:03:03.981Z,102003.03
2023-05-18T06:05:30.675Z,102000.31
2023-05-18T06:07:57.648Z,102000.00
2023-05-18T06:10:24.144Z,102001.75
2023-05-18T06:12:50.658Z,102000.56
2023-05-18T06:15:19.219Z,102000.56
2023-05-18T06:17:45.855Z,102003.28
2023-05-18T06:20:13.671Z,102006.59
2023-05-18T06:22:40.178Z,102006.59
2023-05-18T06:25:06.822Z,102003.00
2023-05-18T06:27:33.322Z,102009.34
2023-05-18T06:29:59.744Z,102010.19
2023-05-18T06:32:27.447Z,102010.00
2023-05-18T06:34:53.983Z,102006.22
2023-05-18T06:37:21.364Z,102009.31
2023-05-18T06:39:47.849Z,102010.16
2023-05-18T06:42:14.288Z,102008.41
2023-05-18T06:44:40.759Z,102011.47
2023-05-18T06:47:07.623Z,102008.88
2023-05-18T06:49:34.075Z,102012.44
2023-05-18T06:52:00.575Z,102009.50
2023-05-18T06:54:29.398Z,102010.50
2023-05-18T06:56:55.882Z,102008.41
2023-05-18T06:59:23.156Z,102005.25
2023-05-18T07:01:49.618Z,101995.06
2023-05-18T07:04:16.275Z,101993.47
2023-05-18T07:06:42.922Z,101997.03
2023-05-18T07:09:09.367Z,101996.13
2023-05-18T07:11:35.820Z,101998.16
2023-05-18T07:14:02.252Z,101991.84
2023-05-18T07:16:29.033Z,101990.06
2023-05-18T07:18:57.779Z,101982.69
2023-05-18T07:21:25.162Z,101984.84
2023-05-18T07:23:52.724Z,101976.78
2023-05-18T07:26:19.777Z,101978.59
2023-05-18T07:28:47.746Z,101976.78
2023-05-18T07:31:16.339Z,101981.38
2023-05-18T07:33:43.987Z,101976.81
2023-05-18T07:36:10.864Z,101973.97
2023-05-18T07:38:37.471Z,101977.66
2023-05-18T07:41:03.946Z,101978.81
2023-05-18T07:43:30.847Z,101975.28
2023-05-18T07:45:57.284Z,101972.44
2023-05-18T07:48:23.838Z,101979.53
2023-05-18T07:50:50.290Z,101968.78
2023-05-18T07:53:16.794Z,101976.22
2023-05-18T07:55:43.337Z,101957.66
2023-05-18T07:58:10.593Z,101963.66
2023-05-18T08:00:37.461Z,101961.59
2023-05-18T08:03:04.502Z,101954.97
2023-05-18T08:05:31.407Z,101952.09
2023-05-18T08:07:58.077Z,101943.69
2023-05-18T08:10:24.746Z,101950.03
2023-05-18T08:12:51.649Z,101942.91
2023-05-18T08:15:18.251Z,101940.00
2023-05-18T08:17:44.771Z,101942.63
2023-05-18T08:20:11.834Z,101937.63
2023-05-18T08:22:38.355Z,101933.00
2023-05-18T08:25:05.231Z,101936.06
2023-05-18T08:27:31.793Z,101936.28
2023-05-18T08:29:58.335Z,101925.72
2023-05-18T08:32:25.421Z,101928.34
2023-05-18T08:34:51.941Z,101922.63
2023-05-18T08:37:18.462Z,101920.09
2023-05-18T08:39:46.211Z,101923.16
2023-05-18T08:42:49.492Z,101916.41
2023-05-18T08:45:48.831Z,101917.69
2023-05-18T08:48:16.669Z,101911.78
2023-05-18T08:50:44.344Z,101914.81
2023-05-18T08:53:12.187Z,101917.78
2023-05-18T08:55:40.294Z,101915.78
2023-05-18T08:58:09.087Z,101905.22
2023-05-18T09:00:36.134Z,101902.06
2023-05-18T09:03:04.973Z,101907.84
2023-05-18T09:05:31.809Z,101911.91
2023-05-18T09:07:59.243Z,101910.19
2023-05-18T09:10:26.256Z,101905.75
2023-05-18T09:12:56.144Z,101904.91
2023-05-18T09:15:25.225Z,101905.34
2023-05-18T09:17:52.119Z,101901.97
2023-05-18T09:20:20.235Z,101893.25
2023-05-18T09:22:49.396Z,101893.69
2023-05-18T09:25:17.090Z,101894.75
2023-05-18T09:27:43.924Z,101890.09
2023-05-18T09:30:11.920Z,101887.97
2023-05-18T09:32:38.772Z,101883.25
2023-05-18T09:35:06.792Z,101880.88
2023-05-18T09:37:33.937Z,101884.72
2023-05-18T09:40:04.944Z,101878.72
2023-05-18T09:42:39.580Z,101882.91
2023-05-18T09:45:17.710Z,101876.44
2023-05-18T09:47:44.387Z,101877.50
2023-05-18T09:50:11.473Z,101870.66
2023-05-18T09:52:45.309Z,101875.75
2023-05-18T09:55:12.908Z,101867.34
2023-05-18T09:57:49.958Z,101862.31
2023-05-18T10:00:19.304Z,101854.59
2023-05-18T10:02:49.085Z,101862.19
2023-05-18T10:05:27.332Z,101854.72
2023-05-18T10:07:55.081Z,101854.78
2023-05-18T10:10:24.143Z,101852.06
2023-05-18T10:12:51.127Z,101842.91
2023-05-18T10:15:20.790Z,101840.06
2023-05-18T10:17:48.630Z,101838.81
2023-05-18T10:20:19.686Z,101832.03
2023-05-18T10:22:48.047Z,101830.34
2023-05-18T10:25:21.036Z,101822.66
2023-05-18T10:27:56.371Z,101819.81
2023-05-18T10:30:23.100Z,101821.28
2023-05-18T10:32:51.349Z,101822.50
2023-05-18T10:35:18.342Z,101819.31
2023-05-18T10:37:50.327Z,101806.50
2023-05-18T10:40:18.179Z,101808.91
2023-05-18T10:42:46.384Z,101807.09
2023-05-18T10:45:14.071Z,101811.91
2023-05-18T10:47:43.380Z,101797.31
2023-05-18T10:50:10.702Z,101801.31
2023-05-18T10:52:38.075Z,101806.75
2023-05-18T10:55:06.842Z,101801.19
2023-05-18T10:57:38.340Z,101793.94
2023-05-18T11:00:08.139Z,101799.19
2023-05-18T11:02:35.143Z,101792.16
2023-05-18T11:05:05.702Z,101789.16
2023-05-18T11:07:34.000Z,101793.34
2023-05-18T11:10:09.187Z,101795.25
2023-05-18T11:12:38.152Z,101793.72
2023-05-18T11:15:08.284Z,101785.72
2023-05-18T11:17:35.152Z,101785.81
2023-05-18T11:20:05.775Z,101779.59
2023-05-18T11:22:57.388Z,101769.56
2023-05-18T11:25:32.999Z,101767.19
2023-05-18T11:28:03.264Z,101756.19
2023-05-18T11:30:45.121Z,101767.38
2023-05-18T11:33:14.547Z,101764.06
2023-05-18T11:36:03.253Z,101757.56
2023-05-18T11:38:49.536Z,101753.56
2023-05-18T11:41:29.095Z,101743.66
2023-05-18T11:44:06.724Z,101736.72
2023-05-18T11:46:33.854Z,101736.72
2023-05-18T11:49:09.725Z,101739.38
2023-05-18T11:52:02.480Z,101739.06
2023-05-18T11:54:33.240Z,101731.28
2023-05-18T11:56:59.851Z,101731.44
2023-05-18T11:59:46.390Z,101727.09
2023-05-18T12:02:19.646Z,101722.75
2023-05-18T12:04:51.955Z,101718.75
2023-05-18T12:07:22.561Z,101703.94
2023-05-18T12:09:49.555Z,101702.91
2023-05-18T12:12:20.183Z,101703.84
2023-05-18T12:14:53.845Z,101696.91
2023-05-18T12:17:20.482Z,101694.78
2023-05-18T12:19:48.664Z,101691.47
2023-05-18T12:22:15.819Z,101685.31
2023-05-18T12:24:44.146Z,101680.78
2023-05-18T12:27:12.087Z,101682.50
2023-05-18T12:29:40.407Z,101675.38
2023-05-18T12:32:12.429Z,101681.84
2023-05-18T12:34:39.565Z,101684.69
2023-05-18T12:37:07.939Z,101668.44
2023-05-18T12:39:35.136Z,101668.75
2023-05-18T12:42:15.267Z,101670.75
2023-05-18T12:44:45.481Z,101659.22
2023-05-18T12:47:12.748Z,101666.81
2023-05-18T12:49:48.016Z,101671.59
2023-05-18T12:52:16.855Z,101671.03
2023-05-18T12:55:00.824Z,101657.88
2023-05-18T12:57:27.864Z,101663.78
2023-05-18T12:59:54.845Z,101655.06
2023-05-18T13:02:31.769Z,101655.06
2023-05-18T13:05:10.245Z,101655.03
2023-05-18T13:07:42.325Z,101649.41
2023-05-18T13:10:15.579Z,101654.22
2023-05-18T13:12:49.709Z,101651.91
2023-05-18T13:15:17.207Z,101640.09
2023-05-18T13:17:52.494Z,101642.31
2023-05-18T13:20:19.074Z,101642.31
2023-05-18T13:22:45.638Z,101644.88
2023-05-18T13:25:12.155Z,101631.63
2023-05-18T13:27:38.653Z,101638.66
2023-05-18T13:30:06.051Z,101642.03
2023-05-18T13:32:33.671Z,101643.13
2023-05-18T13:35:00.179Z,101626.44
2023-05-18T13:37:26.722Z,101621.84
2023-05-18T13:39:53.117Z,101631.09
2023-05-18T13:42:21.333Z,101613.25
2023-05-18T13:44:48.142Z,101619.03
2023-05-18T13:47:14.573Z,101615.31
2023-05-18T13:49:41.012Z,101614.13
2023-05-18T13:52:07.442Z,101612.38
2023-05-18T13:54:33.878Z,101612.91
2023-05-18T13:57:00.357Z,101608.84
2023-05-18T13:59:27.611Z,101609.53
2023-05-18T14:01:54.053Z,101602.91
2023-05-18T14:04:20.516Z,101594.16
2023-05-18T14:06:46.994Z,101584.16
2023-05-18T14:09:13.429Z,101589.09
2023-05-18T14:11:39.834Z,101594.31
2023-05-18T14:14:06.663Z,101581.72
2023-05-18T14:16:33.147Z,101582.91
2023-05-18T14:18:59.632Z,101569.44
2023-05-18T14:21:26.047Z,101565.09
2023-05-18T14:23:52.461Z,101566.47
2023-05-18T14:26:18.986Z,101570.63
2023-05-18T14:28:46.257Z,101571.91
2023-05-18T14:31:12.781Z,101572.44
2023-05-18T14:33:39.287Z,101566.19
2023-05-18T14:36:06.144Z,101563.38
2023-05-18T14:38:32.658Z,101559.94
2023-05-18T14:40:59.142Z,101549.69
2023-05-18T14:43:25.666Z,101558.03
2023-05-18T14:46:04.305Z,101551.84
2023-05-18T14:48:34.921Z,101554.94
2023-05-18T14:51:01.384Z,101541.28
2023-05-18T14:53:27.825Z,101548.09
2023-05-18T14:55:54.331Z,101545.53
2023-05-18T14:58:20.832Z,101531.66
2023-05-18T15:00:47.259Z,101534.03
2023-05-18T15:03:14.404Z,101531.06
2023-05-18T15:05:41.464Z,101533.81
2023-05-18T15:08:07.884Z,101524.31
2023-05-18T15:10:34.285Z,101543.34
2023-05-18T15:13:00.729Z,101527.13
2023-05-18T15:15:27.132Z,101529.09
2023-05-18T15:17:53.732Z,101522.50
2023-05-18T15:20:20.566Z,101518.50
2023-05-18T15:22:47.030Z,101511.34
2023-05-18T15:25:13.451Z,101525.56
2023-05-18T15:27:39.940Z,101528.09
2023-05-18T15:30:11.282Z,101524.16
2023-05-18T15:32:38.734Z,101520.59
2023-05-18T15:35:06.657Z,101526.50
2023-05-18T15:37:33.420Z,101524.84
2023-05-18T15:40:00.008Z,101509.72
2023-05-18T15:42:27.129Z,101522.09
2023-05-18T15:44:53.677Z,101526.97
2023-05-18T15:47:20.124Z,101520.94
2023-05-18T15:49:46.555Z,101518.88
2023-05-18T15:52:12.983Z,101525.81
2023-05-18T15:54:39.415Z,101515.84
2023-05-18T15:57:06.162Z,101513.84
2023-05-18T15:59:32.582Z,101516.72
2023-05-18T16:01:59.059Z,101508.66
2023-05-18T16:04:25.635Z,101518.66
2023-05-18T16:06:52.102Z,101514.91
2023-05-18T16:09:18.535Z,101520.44
2023-05-18T16:11:44.966Z,101519.31
2023-05-18T16:14:11.418Z,101517.19
2023-05-18T16:16:37.890Z,101513.72
2023-05-18T16:19:05.510Z,101506.78
2023-05-18T16:21:32.052Z,101515.94
2023-05-18T16:23:58.662Z,101511.84
2023-05-18T16:26:26.134Z,101512.47
2023-05-18T16:28:52.586Z,101503.78
2023-05-18T16:31:19.161Z,101509.41
2023-05-18T16:33:45.717Z,101514.53
2023-05-18T16:36:12.501Z,101527.28
2023-05-18T16:38:39.224Z,101518.31
2023-05-18T16:41:06.464Z,101525.88
2023-05-18T16:43:33.724Z,101535.81
2023-05-18T16:46:00.242Z,101526.50
2023-05-18T16:48:26.997Z,101529.47
2023-05-18T16:50:53.545Z,101531.25
2023-05-18T16:53:19.993Z,101524.03
2023-05-18T16:55:46.524Z,101525.03
2023-05-18T16:58:12.989Z,101524.13
2023-05-18T17:00:39.460Z,101527.72
2023-05-18T17:03:06.540Z,101522.59
2023-05-18T17:05:34.585Z,101519.34
2023-05-18T17:08:01.062Z,101512.78
2023-05-18T17:10:27.531Z,101512.88
2023-05-18T17:12:54.440Z,101514.78
2023-05-18T17:15:20.871Z,101525.91
2023-05-18T17:17:47.425Z,101517.91
2023-05-18T17:20:14.010Z,101516.19
2023-05-18T17:22:40.472Z,101522.00
2023-05-18T17:25:07.695Z,101517.28
2023-05-18T17:27:34.192Z,101520.09
2023-05-18T17:30:00.832Z,101516.09
2023-05-18T17:32:27.260Z,101512.22
2023-05-18T17:34:53.702Z,101512.84
2023-05-18T17:37:20.393Z,101514.84
2023-05-18T17:39:46.877Z,101512.91
2023-05-18T17:42:13.341Z,101512.84
2023-05-18T17:44:40.125Z,101518.06
2023-05-18T17:47:06.703Z,101527.69
2023-05-18T17:49:33.506Z,101528.53
2023-05-18T17:51:59.997Z,101528.47
2023-05-18T17:54:26.474Z,101540.69
2023-05-18T17:56:53.038Z,101542.44
2023-05-18T17:59:19.477Z,101543.16
2023-05-18T18:01:46.191Z,101552.81
2023-05-18T18:04:12.659Z,101545.44
2023-05-18T18:06:39.349Z,101538.47
2023-05-18T18:09:05.924Z,101544.72
2023-05-18T18:11:32.480Z,101551.56
2023-05-18T18:13:59.629Z,101553.03
2023-05-18T18:16:26.238Z,101563.50
2023-05-18T18:18:52.919Z,101558.75
2023-05-18T18:21:19.630Z,101565.78
2023-05-18T18:23:46.146Z,101558.81
2023-05-18T18:26:12.687Z,101562.41
2023-05-18T18:28:39.336Z,101566.00
2023-05-18T18:31:05.944Z,101567.63
2023-05-18T18:33:32.927Z,101574.31
2023-05-18T18:35:59.552Z,101574.69
2023-05-18T18:38:28.996Z,101575.03
2023-05-18T18:41:01.624Z,101576.28
2023-05-18T18:43:28.622Z,101575.81
2023-05-18T18:45:56.972Z,101583.50
2023-05-18T18:48:23.887Z,101586.22
2023-05-18T18:50:50.443Z,101586.59
2023-05-18T18:53:17.235Z,101595.84
2023-05-18T18:55:43.736Z,101594.41
2023-05-18T18:58:10.303Z,101606.44
2023-05-18T19:00:36.902Z,101604.25
2023-05-18T19:03:04.054Z,101610.94
2023-05-18T19:05:31.300Z,101611.13
2023-05-18T19:07:58.059Z,101617.53
2023-05-18T19:10:25.406Z,101620.56
2023-05-18T19:12:51.878Z,101620.06
2023-05-18T19:15:18.701Z,101626.69
2023-05-18T19:17:52.028Z,101633.91
2023-05-18T19:20:18.806Z,101640.28
2023-05-18T19:22:45.216Z,101641.50
2023-05-18T19:25:11.671Z,101644.13
2023-05-18T19:27:38.218Z,101639.50
2023-05-18T19:30:05.898Z,101650.31
2023-05-18T19:32:32.515Z,101642.91
2023-05-18T19:34:59.070Z,101649.63
2023-05-18T19:37:25.598Z,101657.34
2023-05-18T19:39:52.121Z,101651.38
2023-05-18T19:42:18.576Z,101660.19
2023-05-18T19:44:45.018Z,101660.06
2023-05-18T19:47:11.668Z,101665.69
2023-05-18T19:49:38.089Z,101666.63
2023-05-18T19:52:08.154Z,101670.34
2023-05-18T19:54:38.343Z,101676.19
2023-05-18T19:57:05.098Z,101682.03
2023-05-18T19:59:31.601Z,101682.13
2023-05-18T20:01:59.338Z,101686.44
2023-05-18T20:04:28.366Z,101686.25
2023-05-18T20:06:58.809Z,101686.31
2023-05-18T20:09:25.914Z,101685.06
2023-05-18T20:11:53.302Z,101688.53
2023-05-18T20:14:20.019Z,101692.69
2023-05-18T20:16:46.531Z,101696.78
2023-05-18T20:19:13.856Z,101693.59
2023-05-18T20:21:41.216Z,101697.22
2023-05-18T20:24:07.696Z,101697.28
2023-05-18T20:26:34.230Z,101701.78
2023-05-18T20:29:00.762Z,101703.34
2023-05-18T20:31:27.247Z,101710.63
2023-05-18T20:33:56.933Z,101710.22
2023-05-18T20:36:25.186Z,101713.25
2023-05-18T20:38:52.988Z,101721.41
2023-05-18T20:41:19.906Z,101713.75
2023-05-18T20:43:46.715Z,101716.34
2023-05-18T20:46:16.001Z,101711.44
2023-05-18T20:48:44.687Z,101724.06
2023-05-18T20:51:15.570Z,101716.84
2023-05-18T20:53:42.348Z,101733.91
2023-05-18T20:56:08.899Z,101736.03
2023-05-18T20:58:35.631Z,101741.19
2023-05-18T21:01:06.965Z,101746.31
2023-05-18T21:03:34.429Z,101742.72
2023-05-18T21:06:04.400Z,101748.06
2023-05-18T21:08:30.856Z,101752.78
2023-05-18T21:10:57.286Z,101757.50
2023-05-18T21:13:23.758Z,101751.13
2023-05-18T21:15:50.272Z,101754.97
2023-05-18T21:18:16.958Z,101763.47
2023-05-18T21:20:43.761Z,101760.94
2023-05-18T21:23:10.350Z,101761.38
2023-05-18T21:25:36.875Z,101760.97
2023-05-18T21:28:03.352Z,101758.00
2023-05-18T21:30:32.167Z,101754.38
2023-05-18T21:32:58.915Z,101751.63
2023-05-18T21:35:25.500Z,101756.31
2023-05-18T21:37:51.947Z,101763.09
2023-05-18T21:40:18.406Z,101761.84
2023-05-18T21:42:45.873Z,101767.59
2023-05-18T21:45:13.426Z,101756.28
2023-05-18T21:47:40.076Z,101762.22
2023-05-18T21:50:07.210Z,101763.69
2023-05-18T21:52:33.645Z,101754.09
2023-05-18T21:55:00.231Z,101760.00
2023-05-18T21:57:26.650Z,101760.81
2023-05-18T21:59:53.110Z,101764.81
2023-05-18T22:02:19.535Z,101768.81
2023-05-18T22:04:45.955Z,101770.06
2023-05-18T22:07:13.859Z,101768.28
2023-05-18T22:09:40.454Z,101769.50
2023-05-18T22:12:07.023Z,101766.72
2023-05-18T22:14:33.576Z,101777.69
2023-05-18T22:17:00.044Z,101773.22
2023-05-18T22:19:26.689Z,101777.38
2023-05-18T22:21:53.820Z,101781.78
2023-05-18T22:24:20.444Z,101777.44
2023-05-18T22:26:46.938Z,101781.41
2023-05-18T22:29:13.461Z,101784.50
2023-05-18T22:31:40.006Z,101787.16
2023-05-18T22:34:06.513Z,101777.13
2023-05-18T22:36:32.978Z,101782.59
2023-05-18T22:38:59.434Z,101782.72
2023-05-18T22:41:26.907Z,101778.81
2023-05-18T22:43:53.359Z,101783.88
2023-05-18T22:46:19.877Z,101785.13
2023-05-18T22:48:46.323Z,101775.38
2023-05-18T22:51:12.779Z,101787.63
2023-05-18T22:53:39.212Z,101780.81
2023-05-18T22:56:07.032Z,101784.34
2023-05-18T22:58:33.796Z,101778.19
2023-05-18T23:01:00.404Z,101774.97
2023-05-18T23:03:26.899Z,101781.91
2023-05-18T23:05:53.435Z,101780.59
2023-05-18T23:08:20.369Z,101780.31
2023-05-18T23:10:48.025Z,101784.69
2023-05-18T23:13:17.383Z,101784.63
2023-05-18T23:15:44.359Z,101781.19
2023-05-18T23:18:12.489Z,101788.34
2023-05-18T23:20:39.187Z,101791.66
2023-05-18T23:23:05.888Z,101791.38
2023-05-18T23:25:32.387Z,101792.41
2023-05-18T23:27:58.860Z,101794.91
2023-05-18T23:30:25.361Z,101798.16
2023-05-18T23:32:53.030Z,101795.97
2023-05-18T23:35:19.930Z,101788.94
2023-05-18T23:37:49.792Z,101797.59
2023-05-18T23:40:18.272Z,101800.69
2023-05-18T23:42:45.388Z,101798.72
2023-05-18T23:45:12.574Z,101805.47
2023-05-18T23:47:39.362Z,101803.44
2023-05-18T23:50:06.603Z,101810.88
2023-05-18T23:52:34.743Z,101812.94
2023-05-18T23:55:02.758Z,101809.53
2023-05-18T23:57:29.563Z,101811.59
2023-05-18T23:59:56.349Z,101807.34
